sensor_id;sensor_type;location;lat;lon;timestamp;temperature;humidity
73792;DHT22;62122;41.112;16.694;2022-07-15T00:02:37;22.08;58.35
73792;DHT22;62122;41.112;16.694;2022-07-15T00:05:41;22.16;57.89
73792;DHT22;62122;41.112;16.694;2022-07-15T00:08:45;22.14;57.81
73792;DHT22;62122;41.112;16.694;2022-07-15T00:11:51;22.08;58.16
73792;DHT22;62122;41.112;16.694;2022-07-15T00:14:54;22.00;57.57
73792;DHT22;62122;41.112;16.694;2022-07-15T00:17:59;21.79;57.91
73792;DHT22;62122;41.112;16.694;2022-07-15T00:21:06;21.61;58.40
73792;DHT22;62122;41.112;16.694;2022-07-15T00:24:11;21.50;58.62
73792;DHT22;62122;41.112;16.694;2022-07-15T00:27:15;21.50;57.97
73792;DHT22;62122;41.112;16.694;2022-07-15T00:30:19;21.59;57.04
73792;DHT22;62122;41.112;16.694;2022-07-15T00:33:23;21.59;56.39
73792;DHT22;62122;41.112;16.694;2022-07-15T00:36:28;21.61;55.72
73792;DHT22;62122;41.112;16.694;2022-07-15T00:39:32;21.55;55.47
73792;DHT22;62122;41.112;16.694;2022-07-15T00:42:37;21.45;55.35
73792;DHT22;62122;41.112;16.694;2022-07-15T00:45:50;21.69;54.80
73792;DHT22;62122;41.112;16.694;2022-07-15T00:48:53;21.78;53.88
73792;DHT22;62122;41.112;16.694;2022-07-15T00:51:58;21.64;54.11
73792;DHT22;62122;41.112;16.694;2022-07-15T00:55:04;21.59;54.25
73792;DHT22;62122;41.112;16.694;2022-07-15T00:58:18;21.57;53.54
73792;DHT22;62122;41.112;16.694;2022-07-15T01:01:22;21.61;53.29
73792;DHT22;62122;41.112;16.694;2022-07-15T01:04:27;21.65;53.11
73792;DHT22;62122;41.112;16.694;2022-07-15T01:07:33;21.68;52.62
73792;DHT22;62122;41.112;16.694;2022-07-15T01:10:40;21.74;51.80
73792;DHT22;62122;41.112;16.694;2022-07-15T01:13:46;21.82;50.83
73792;DHT22;62122;41.112;16.694;2022-07-15T01:16:50;21.83;50.58
73792;DHT22;62122;41.112;16.694;2022-07-15T01:19:55;21.79;51.29
73792;DHT22;62122;41.112;16.694;2022-07-15T01:23:02;21.59;51.82
73792;DHT22;62122;41.112;16.694;2022-07-15T01:26:35;21.52;51.68
73792;DHT22;62122;41.112;16.694;2022-07-15T01:29:40;21.62;51.09
73792;DHT22;62122;41.112;16.694;2022-07-15T01:32:50;21.75;50.30
73792;DHT22;62122;41.112;16.694;2022-07-15T01:35:54;21.57;50.32
73792;DHT22;62122;41.112;16.694;2022-07-15T01:39:05;21.52;50.06
73792;DHT22;62122;41.112;16.694;2022-07-15T01:42:09;21.55;49.67
73792;DHT22;62122;41.112;16.694;2022-07-15T01:45:27;21.50;49.46
73792;DHT22;62122;41.112;16.694;2022-07-15T01:48:39;21.47;49.71
73792;DHT22;62122;41.112;16.694;2022-07-15T01:52:22;21.41;49.65
73792;DHT22;62122;41.112;16.694;2022-07-15T01:55:34;21.50;48.99
73792;DHT22;62122;41.112;16.694;2022-07-15T01:58:41;21.44;48.71
73792;DHT22;62122;41.112;16.694;2022-07-15T02:01:46;21.33;48.67
73792;DHT22;62122;41.112;16.694;2022-07-15T02:04:53;21.26;48.74
73792;DHT22;62122;41.112;16.694;2022-07-15T02:07:57;21.31;48.03
73792;DHT22;62122;41.112;16.694;2022-07-15T02:11:02;21.33;47.48
73792;DHT22;62122;41.112;16.694;2022-07-15T02:14:07;21.37;46.98
73792;DHT22;62122;41.112;16.694;2022-07-15T02:17:11;21.37;46.87
73792;DHT22;62122;41.112;16.694;2022-07-15T02:20:18;21.33;46.69
73792;DHT22;62122;41.112;16.694;2022-07-15T02:23:23;21.41;46.50
73792;DHT22;62122;41.112;16.694;2022-07-15T02:26:27;21.37;46.39
73792;DHT22;62122;41.112;16.694;2022-07-15T02:29:33;21.33;46.63
73792;DHT22;62122;41.112;16.694;2022-07-15T02:32:37;21.28;46.95
73792;DHT22;62122;41.112;16.694;2022-07-15T02:35:42;21.23;47.05
73792;DHT22;62122;41.112;16.694;2022-07-15T02:38:46;21.17;47.00
73792;DHT22;62122;41.112;16.694;2022-07-15T02:41:52;21.19;47.00
73792;DHT22;62122;41.112;16.694;2022-07-15T02:44:56;21.16;46.95
73792;DHT22;62122;41.112;16.694;2022-07-15T02:48:00;21.23;46.76
73792;DHT22;62122;41.112;16.694;2022-07-15T02:51:10;21.20;46.47
73792;DHT22;62122;41.112;16.694;2022-07-15T02:54:14;21.19;46.17
73792;DHT22;62122;41.112;16.694;2022-07-15T02:57:18;21.23;45.85
73792;DHT22;62122;41.112;16.694;2022-07-15T03:00:24;21.27;45.67
73792;DHT22;62122;41.112;16.694;2022-07-15T03:03:34;21.34;45.36
73792;DHT22;62122;41.112;16.694;2022-07-15T03:06:41;21.37;44.93
73792;DHT22;62122;41.112;16.694;2022-07-15T03:09:46;21.41;44.79
73792;DHT22;62122;41.112;16.694;2022-07-15T03:12:50;21.54;44.35
73792;DHT22;62122;41.112;16.694;2022-07-15T03:15:56;21.58;44.47
73792;DHT22;62122;41.112;16.694;2022-07-15T03:19:01;21.74;43.87
73792;DHT22;62122;41.112;16.694;2022-07-15T03:22:05;21.69;43.92
73792;DHT22;62122;41.112;16.694;2022-07-15T03:25:12;21.64;44.05
73792;DHT22;62122;41.112;16.694;2022-07-15T03:28:16;21.59;44.41
73792;DHT22;62122;41.112;16.694;2022-07-15T03:31:24;21.61;44.55
73792;DHT22;62122;41.112;16.694;2022-07-15T03:34:28;21.50;44.98
73792;DHT22;62122;41.112;16.694;2022-07-15T03:37:32;21.44;44.76
73792;DHT22;62122;41.112;16.694;2022-07-15T03:40:36;21.44;44.53
73792;DHT22;62122;41.112;16.694;2022-07-15T03:43:40;21.54;44.74
73792;DHT22;62122;41.112;16.694;2022-07-15T03:46:45;21.65;44.17
73792;DHT22;62122;41.112;16.694;2022-07-15T03:49:51;21.68;43.63
73792;DHT22;62122;41.112;16.694;2022-07-15T03:52:55;21.77;43.70
73792;DHT22;62122;41.112;16.694;2022-07-15T03:55:58;21.75;43.66
73792;DHT22;62122;41.112;16.694;2022-07-15T03:59:02;21.82;43.64
73792;DHT22;62122;41.112;16.694;2022-07-15T04:02:06;21.83;43.43
73792;DHT22;62122;41.112;16.694;2022-07-15T04:05:11;21.91;43.39
73792;DHT22;62122;41.112;16.694;2022-07-15T04:08:15;21.74;43.60
73792;DHT22;62122;41.112;16.694;2022-07-15T04:11:18;21.78;43.56
73792;DHT22;62122;41.112;16.694;2022-07-15T04:14:22;21.92;43.50
73792;DHT22;62122;41.112;16.694;2022-07-15T04:17:26;21.85;43.46
73792;DHT22;62122;41.112;16.694;2022-07-15T04:20:30;21.86;43.75
73792;DHT22;62122;41.112;16.694;2022-07-15T04:23:36;21.82;43.81
73792;DHT22;62122;41.112;16.694;2022-07-15T04:26:40;21.95;44.04
73792;DHT22;62122;41.112;16.694;2022-07-15T04:29:45;21.98;44.11
73792;DHT22;62122;41.112;16.694;2022-07-15T04:32:51;22.03;43.68
73792;DHT22;62122;41.112;16.694;2022-07-15T04:35:56;22.10;43.76
73792;DHT22;62122;41.112;16.694;2022-07-15T04:39:00;22.17;43.90
73792;DHT22;62122;41.112;16.694;2022-07-15T04:42:04;22.36;43.69
73792;DHT22;62122;41.112;16.694;2022-07-15T04:45:11;22.43;43.54
73792;DHT22;62122;41.112;16.694;2022-07-15T04:48:16;22.41;43.31
73792;DHT22;62122;41.112;16.694;2022-07-15T04:51:38;22.36;43.65
73792;DHT22;62122;41.112;16.694;2022-07-15T04:54:44;22.48;43.73
73792;DHT22;62122;41.112;16.694;2022-07-15T04:57:49;22.48;43.33
73792;DHT22;62122;41.112;16.694;2022-07-15T05:00:53;22.58;43.27
73792;DHT22;62122;41.112;16.694;2022-07-15T05:03:57;22.71;43.50
73792;DHT22;62122;41.112;16.694;2022-07-15T05:07:02;22.75;43.75
73792;DHT22;62122;41.112;16.694;2022-07-15T05:10:09;22.87;43.52
73792;DHT22;62122;41.112;16.694;2022-07-15T05:13:16;22.96;43.28
73792;DHT22;62122;41.112;16.694;2022-07-15T05:16:22;22.99;43.28
73792;DHT22;62122;41.112;16.694;2022-07-15T05:19:27;23.13;42.78
73792;DHT22;62122;41.112;16.694;2022-07-15T05:22:31;23.24;42.82
73792;DHT22;62122;41.112;16.694;2022-07-15T05:25:34;23.34;42.77
73792;DHT22;62122;41.112;16.694;2022-07-15T05:28:38;23.56;42.32
73792;DHT22;62122;41.112;16.694;2022-07-15T05:31:43;23.67;42.24
73792;DHT22;62122;41.112;16.694;2022-07-15T05:34:48;23.68;42.38
73792;DHT22;62122;41.112;16.694;2022-07-15T05:37:55;23.87;42.30
73792;DHT22;62122;41.112;16.694;2022-07-15T05:41:04;23.95;42.21
73792;DHT22;62122;41.112;16.694;2022-07-15T05:44:09;24.08;41.98
73792;DHT22;62122;41.112;16.694;2022-07-15T05:47:20;24.26;41.56
73792;DHT22;62122;41.112;16.694;2022-07-15T05:50:25;24.42;41.21
73792;DHT22;62122;41.112;16.694;2022-07-15T05:53:33;24.60;41.01
73792;DHT22;62122;41.112;16.694;2022-07-15T05:56:42;24.80;40.39
73792;DHT22;62122;41.112;16.694;2022-07-15T05:59:50;24.91;40.19
73792;DHT22;62122;41.112;16.694;2022-07-15T06:02:55;25.06;39.85
73792;DHT22;62122;41.112;16.694;2022-07-15T06:06:03;25.21;39.00
73792;DHT22;62122;41.112;16.694;2022-07-15T06:09:09;25.45;38.54
73792;DHT22;62122;41.112;16.694;2022-07-15T06:12:17;25.74;37.85
73792;DHT22;62122;41.112;16.694;2022-07-15T06:15:21;25.89;37.43
73792;DHT22;62122;41.112;16.694;2022-07-15T06:18:27;26.02;37.55
73792;DHT22;62122;41.112;16.694;2022-07-15T06:21:32;26.25;36.99
73792;DHT22;62122;41.112;16.694;2022-07-15T06:24:36;26.48;36.70
73792;DHT22;62122;41.112;16.694;2022-07-15T06:27:40;26.75;36.22
73792;DHT22;62122;41.112;16.694;2022-07-15T10:36:24;30.13;32.58
73792;DHT22;62122;41.112;16.694;2022-07-15T10:39:50;30.00;35.22
73792;DHT22;62122;41.112;16.694;2022-07-15T10:42:59;29.97;34.50
73792;DHT22;62122;41.112;16.694;2022-07-15T10:52:29;30.40;31.93
73792;DHT22;62122;41.112;16.694;2022-07-15T10:55:34;30.63;32.90
73792;DHT22;62122;41.112;16.694;2022-07-15T10:58:38;30.53;31.26
73792;DHT22;62122;41.112;16.694;2022-07-15T11:01:45;30.60;32.06
73792;DHT22;62122;41.112;16.694;2022-07-15T11:04:50;30.33;32.51
73792;DHT22;62122;41.112;16.694;2022-07-15T11:07:54;30.88;28.72
73792;DHT22;62122;41.112;16.694;2022-07-15T11:14:42;31.08;30.32
73792;DHT22;62122;41.112;16.694;2022-07-15T11:17:52;31.32;30.19
73792;DHT22;62122;41.112;16.694;2022-07-15T11:20:58;31.26;29.85
73792;DHT22;62122;41.112;16.694;2022-07-15T11:24:02;30.98;29.02
73792;DHT22;62122;41.112;16.694;2022-07-15T11:27:06;30.95;30.13
73792;DHT22;62122;41.112;16.694;2022-07-15T11:30:11;30.97;30.80
73792;DHT22;62122;41.112;16.694;2022-07-15T11:33:16;31.45;29.78
73792;DHT22;62122;41.112;16.694;2022-07-15T11:36:22;31.81;29.37
73792;DHT22;62122;41.112;16.694;2022-07-15T11:39:27;31.62;29.83
73792;DHT22;62122;41.112;16.694;2022-07-15T11:42:31;31.65;28.25
73792;DHT22;62122;41.112;16.694;2022-07-15T11:45:54;31.80;27.98
73792;DHT22;62122;41.112;16.694;2022-07-15T11:48:58;31.65;27.54
73792;DHT22;62122;41.112;16.694;2022-07-15T11:52:04;31.59;28.28
73792;DHT22;62122;41.112;16.694;2022-07-15T11:55:08;31.25;28.21
73792;DHT22;62122;41.112;16.694;2022-07-15T11:58:12;31.32;28.15
73792;DHT22;62122;41.112;16.694;2022-07-15T12:01:20;31.39;27.58
73792;DHT22;62122;41.112;16.694;2022-07-15T12:04:28;31.53;28.53
73792;DHT22;62122;41.112;16.694;2022-07-15T12:10:43;31.59;28.31
73792;DHT22;62122;41.112;16.694;2022-07-15T12:13:55;31.94;27.27
73792;DHT22;62122;41.112;16.694;2022-07-15T12:16:59;31.65;26.78
73792;DHT22;62122;41.112;16.694;2022-07-15T12:20:03;31.88;26.77
73792;DHT22;62122;41.112;16.694;2022-07-15T12:23:10;32.11;26.68
73792;DHT22;62122;41.112;16.694;2022-07-15T12:26:15;32.13;26.02
73792;DHT22;62122;41.112;16.694;2022-07-15T12:29:24;32.27;24.72
73792;DHT22;62122;41.112;16.694;2022-07-15T12:32:28;32.42;25.09
73792;DHT22;62122;41.112;16.694;2022-07-15T12:35:32;32.34;24.62
73792;DHT22;62122;41.112;16.694;2022-07-15T12:38:38;32.76;24.91
73792;DHT22;62122;41.112;16.694;2022-07-15T12:41:44;32.63;24.82
73792;DHT22;62122;41.112;16.694;2022-07-15T12:48:12;32.51;24.05
73792;DHT22;62122;41.112;16.694;2022-07-15T12:51:26;32.17;24.56
73792;DHT22;62122;41.112;16.694;2022-07-15T12:54:33;32.62;24.95
73792;DHT22;62122;41.112;16.694;2022-07-15T12:57:40;32.87;24.12
73792;DHT22;62122;41.112;16.694;2022-07-15T13:00:45;32.55;25.12
73792;DHT22;62122;41.112;16.694;2022-07-15T13:03:51;33.06;24.49
73792;DHT22;62122;41.112;16.694;2022-07-15T13:06:55;32.83;24.40
73792;DHT22;62122;41.112;16.694;2022-07-15T13:09:59;32.62;24.59
73792;DHT22;62122;41.112;16.694;2022-07-15T13:13:04;33.00;24.54
73792;DHT22;62122;41.112;16.694;2022-07-15T13:16:08;33.02;25.05
73792;DHT22;62122;41.112;16.694;2022-07-15T13:19:12;32.79;24.40
73792;DHT22;62122;41.112;16.694;2022-07-15T13:22:16;32.71;24.91
73792;DHT22;62122;41.112;16.694;2022-07-15T13:25:20;32.46;24.31
73792;DHT22;62122;41.112;16.694;2022-07-15T13:28:25;32.96;23.83
73792;DHT22;62122;41.112;16.694;2022-07-15T13:31:28;33.13;22.74
73792;DHT22;62122;41.112;16.694;2022-07-15T13:34:34;32.96;23.80
73792;DHT22;62122;41.112;16.694;2022-07-15T13:37:42;32.84;23.68
73792;DHT22;62122;41.112;16.694;2022-07-15T13:40:45;32.75;22.51
73792;DHT22;62122;41.112;16.694;2022-07-15T13:43:50;32.58;23.42
73792;DHT22;62122;41.112;16.694;2022-07-15T13:46:54;32.83;23.23
73792;DHT22;62122;41.112;16.694;2022-07-15T13:49:58;33.06;23.66
73792;DHT22;62122;41.112;16.694;2022-07-15T13:53:20;32.76;23.33
73792;DHT22;62122;41.112;16.694;2022-07-15T13:56:25;32.90;23.99
73792;DHT22;62122;41.112;16.694;2022-07-15T13:59:29;32.56;24.40
73792;DHT22;62122;41.112;16.694;2022-07-15T14:02:34;32.83;24.19
73792;DHT22;62122;41.112;16.694;2022-07-15T14:05:39;32.95;23.64
73792;DHT22;62122;41.112;16.694;2022-07-15T14:08:43;32.63;23.42
73792;DHT22;62122;41.112;16.694;2022-07-15T14:11:47;32.96;23.88
73792;DHT22;62122;41.112;16.694;2022-07-15T14:14:54;32.91;24.16
73792;DHT22;62122;41.112;16.694;2022-07-15T14:17:58;32.93;22.86
73792;DHT22;62122;41.112;16.694;2022-07-15T14:21:02;32.58;22.58
73792;DHT22;62122;41.112;16.694;2022-07-15T14:24:05;32.61;23.04
73792;DHT22;62122;41.112;16.694;2022-07-15T14:27:13;32.76;22.86
73792;DHT22;62122;41.112;16.694;2022-07-15T14:30:17;32.71;22.44
73792;DHT22;62122;41.112;16.694;2022-07-15T14:33:24;33.24;22.70
73792;DHT22;62122;41.112;16.694;2022-07-15T14:36:28;33.04;21.98
73792;DHT22;62122;41.112;16.694;2022-07-15T14:39:31;33.20;22.20
73792;DHT22;62122;41.112;16.694;2022-07-15T14:42:35;33.07;22.06
73792;DHT22;62122;41.112;16.694;2022-07-15T14:45:39;32.69;22.67
73792;DHT22;62122;41.112;16.694;2022-07-15T14:48:43;32.75;21.65
73792;DHT22;62122;41.112;16.694;2022-07-15T14:51:47;32.51;21.27
73792;DHT22;62122;41.112;16.694;2022-07-15T14:54:51;32.56;21.58
73792;DHT22;62122;41.112;16.694;2022-07-15T14:57:54;32.49;22.45
73792;DHT22;62122;41.112;16.694;2022-07-15T15:00:58;32.51;22.36
73792;DHT22;62122;41.112;16.694;2022-07-15T15:04:02;32.41;22.08
73792;DHT22;62122;41.112;16.694;2022-07-15T15:07:07;32.78;21.19
73792;DHT22;62122;41.112;16.694;2022-07-15T15:10:12;32.59;22.09
73792;DHT22;62122;41.112;16.694;2022-07-15T15:13:17;32.71;21.90
73792;DHT22;62122;41.112;16.694;2022-07-15T15:16:21;32.61;21.24
73792;DHT22;62122;41.112;16.694;2022-07-15T15:19:25;32.65;20.91
73792;DHT22;62122;41.112;16.694;2022-07-15T15:22:29;32.36;20.97
73792;DHT22;62122;41.112;16.694;2022-07-15T15:25:32;32.35;21.38
73792;DHT22;62122;41.112;16.694;2022-07-15T15:28:56;32.45;21.76
73792;DHT22;62122;41.112;16.694;2022-07-15T15:32:00;32.53;21.55
73792;DHT22;62122;41.112;16.694;2022-07-15T15:35:06;32.45;21.18
73792;DHT22;62122;41.112;16.694;2022-07-15T15:38:10;32.29;21.46
73792;DHT22;62122;41.112;16.694;2022-07-15T15:41:16;32.34;21.81
73792;DHT22;62122;41.112;16.694;2022-07-15T15:44:21;31.90;22.25
73792;DHT22;62122;41.112;16.694;2022-07-15T15:47:25;31.81;23.38
73792;DHT22;62122;41.112;16.694;2022-07-15T15:50:29;31.98;21.95
73792;DHT22;62122;41.112;16.694;2022-07-15T15:53:33;32.15;22.11
73792;DHT22;62122;41.112;16.694;2022-07-15T15:56:36;31.77;22.38
73792;DHT22;62122;41.112;16.694;2022-07-15T15:59:40;31.86;22.65
73792;DHT22;62122;41.112;16.694;2022-07-15T16:02:44;31.79;22.87
73792;DHT22;62122;41.112;16.694;2022-07-15T16:05:48;31.59;23.15
73792;DHT22;62122;41.112;16.694;2022-07-15T16:08:53;31.80;22.86
73792;DHT22;62122;41.112;16.694;2022-07-15T16:11:57;31.67;23.45
73792;DHT22;62122;41.112;16.694;2022-07-15T16:15:02;31.63;23.07
73792;DHT22;62122;41.112;16.694;2022-07-15T16:18:06;31.60;23.45
73792;DHT22;62122;41.112;16.694;2022-07-15T16:21:10;31.62;23.62
73792;DHT22;62122;41.112;16.694;2022-07-15T16:24:14;31.59;23.41
73792;DHT22;62122;41.112;16.694;2022-07-15T16:27:18;31.63;22.97
73792;DHT22;62122;41.112;16.694;2022-07-15T16:30:22;31.56;22.83
73792;DHT22;62122;41.112;16.694;2022-07-15T16:33:26;31.32;22.00
73792;DHT22;62122;41.112;16.694;2022-07-15T16:36:30;31.39;22.67
73792;DHT22;62122;41.112;16.694;2022-07-15T16:39:34;31.29;22.65
73792;DHT22;62122;41.112;16.694;2022-07-15T16:42:38;31.18;22.26
73792;DHT22;62122;41.112;16.694;2022-07-15T16:45:43;31.35;22.02
73792;DHT22;62122;41.112;16.694;2022-07-15T16:48:46;31.43;21.99
73792;DHT22;62122;41.112;16.694;2022-07-15T16:51:51;31.43;21.47
73792;DHT22;62122;41.112;16.694;2022-07-15T16:54:55;31.38;22.36
73792;DHT22;62122;41.112;16.694;2022-07-15T16:57:58;31.26;22.35
73792;DHT22;62122;41.112;16.694;2022-07-15T17:01:02;31.02;22.34
73792;DHT22;62122;41.112;16.694;2022-07-15T17:04:06;30.97;22.30
73792;DHT22;62122;41.112;16.694;2022-07-15T17:07:10;30.94;22.20
73792;DHT22;62122;41.112;16.694;2022-07-15T17:10:14;30.99;22.25
73792;DHT22;62122;41.112;16.694;2022-07-15T17:13:18;30.94;22.39
73792;DHT22;62122;41.112;16.694;2022-07-15T17:16:23;30.70;22.84
73792;DHT22;62122;41.112;16.694;2022-07-15T17:19:28;30.50;22.78
73792;DHT22;62122;41.112;16.694;2022-07-15T17:22:31;30.49;22.74
73792;DHT22;62122;41.112;16.694;2022-07-15T17:25:35;30.59;23.17
73792;DHT22;62122;41.112;16.694;2022-07-15T17:28:39;30.55;23.15
73792;DHT22;62122;41.112;16.694;2022-07-15T17:31:43;30.23;23.58
73792;DHT22;62122;41.112;16.694;2022-07-15T17:34:47;30.16;23.51
73792;DHT22;62122;41.112;16.694;2022-07-15T17:37:51;30.13;23.91
73792;DHT22;62122;41.112;16.694;2022-07-15T17:40:55;30.12;23.94
73792;DHT22;62122;41.112;16.694;2022-07-15T17:43:59;30.00;23.88
73792;DHT22;62122;41.112;16.694;2022-07-15T17:47:03;29.95;24.15
73792;DHT22;62122;41.112;16.694;2022-07-15T17:50:07;29.89;23.76
73792;DHT22;62122;41.112;16.694;2022-07-15T17:53:11;29.86;23.88
73792;DHT22;62122;41.112;16.694;2022-07-15T17:56:15;29.92;24.06
73792;DHT22;62122;41.112;16.694;2022-07-15T17:59:19;29.92;23.96
73792;DHT22;62122;41.112;16.694;2022-07-15T18:02:24;29.80;24.08
73792;DHT22;62122;41.112;16.694;2022-07-15T18:05:28;29.77;24.03
73792;DHT22;62122;41.112;16.694;2022-07-15T18:08:32;29.68;24.56
73792;DHT22;62122;41.112;16.694;2022-07-15T18:11:36;29.60;24.34
73792;DHT22;62122;41.112;16.694;2022-07-15T18:14:41;29.57;24.27
73792;DHT22;62122;41.112;16.694;2022-07-15T18:17:45;29.64;23.62
73792;DHT22;62122;41.112;16.694;2022-07-15T18:20:49;29.58;23.71
73792;DHT22;62122;41.112;16.694;2022-07-15T18:23:53;29.53;23.99
73792;DHT22;62122;41.112;16.694;2022-07-15T18:26:59;29.50;24.07
73792;DHT22;62122;41.112;16.694;2022-07-15T18:30:04;29.40;24.00
73792;DHT22;62122;41.112;16.694;2022-07-15T18:33:08;29.30;24.36
73792;DHT22;62122;41.112;16.694;2022-07-15T18:36:13;29.26;24.57
73792;DHT22;62122;41.112;16.694;2022-07-15T18:39:17;29.19;23.21
73792;DHT22;62122;41.112;16.694;2022-07-15T18:42:21;29.12;24.32
73792;DHT22;62122;41.112;16.694;2022-07-15T18:45:24;29.08;25.06
73792;DHT22;62122;41.112;16.694;2022-07-15T18:48:28;29.16;24.41
73792;DHT22;62122;41.112;16.694;2022-07-15T18:51:35;29.09;23.81
73792;DHT22;62122;41.112;16.694;2022-07-15T18:54:43;29.03;24.10
73792;DHT22;62122;41.112;16.694;2022-07-15T18:57:47;29.02;23.85
73792;DHT22;62122;41.112;16.694;2022-07-15T19:00:50;28.96;24.07
73792;DHT22;62122;41.112;16.694;2022-07-15T19:03:56;28.92;24.04
73792;DHT22;62122;41.112;16.694;2022-07-15T19:07:00;28.99;24.56
73792;DHT22;62122;41.112;16.694;2022-07-15T19:10:05;29.06;24.40
73792;DHT22;62122;41.112;16.694;2022-07-15T19:13:09;29.06;25.15
73792;DHT22;62122;41.112;16.694;2022-07-15T19:16:13;29.06;25.62
73792;DHT22;62122;41.112;16.694;2022-07-15T19:19:17;29.05;26.27
73792;DHT22;62122;41.112;16.694;2022-07-15T19:22:21;28.94;27.42
73792;DHT22;62122;41.112;16.694;2022-07-15T19:25:25;28.83;28.28
73792;DHT22;62122;41.112;16.694;2022-07-15T19:28:29;28.75;28.73
73792;DHT22;62122;41.112;16.694;2022-07-15T19:31:32;28.64;28.62
73792;DHT22;62122;41.112;16.694;2022-07-15T19:34:37;28.58;28.59
73792;DHT22;62122;41.112;16.694;2022-07-15T19:37:41;28.51;28.73
73792;DHT22;62122;41.112;16.694;2022-07-15T19:40:46;28.44;28.62
73792;DHT22;62122;41.112;16.694;2022-07-15T19:43:50;28.34;28.19
73792;DHT22;62122;41.112;16.694;2022-07-15T19:46:54;28.28;27.99
73792;DHT22;62122;41.112;16.694;2022-07-15T19:49:58;28.27;27.94
73792;DHT22;62122;41.112;16.694;2022-07-15T19:53:02;28.21;27.66
73792;DHT22;62122;41.112;16.694;2022-07-15T19:56:06;28.20;27.36
73792;DHT22;62122;41.112;16.694;2022-07-15T19:59:10;28.09;27.36
73792;DHT22;62122;41.112;16.694;2022-07-15T20:02:34;27.95;27.43
73792;DHT22;62122;41.112;16.694;2022-07-15T20:05:37;27.86;27.45
73792;DHT22;62122;41.112;16.694;2022-07-15T20:08:42;27.81;27.73
73792;DHT22;62122;41.112;16.694;2022-07-15T20:11:47;27.78;27.94
73792;DHT22;62122;41.112;16.694;2022-07-15T20:14:52;27.75;27.66
73792;DHT22;62122;41.112;16.694;2022-07-15T20:17:56;27.70;28.04
73792;DHT22;62122;41.112;16.694;2022-07-15T20:21:00;27.61;28.35
73792;DHT22;62122;41.112;16.694;2022-07-15T20:24:05;27.48;28.68
73792;DHT22;62122;41.112;16.694;2022-07-15T20:27:14;27.30;29.41
73792;DHT22;62122;41.112;16.694;2022-07-15T20:30:18;27.24;29.69
73792;DHT22;62122;41.112;16.694;2022-07-15T20:33:22;27.20;29.77
73792;DHT22;62122;41.112;16.694;2022-07-15T20:36:28;27.03;30.33
73792;DHT22;62122;41.112;16.694;2022-07-15T20:39:31;26.93;30.45
73792;DHT22;62122;41.112;16.694;2022-07-15T20:42:35;26.92;30.37
73792;DHT22;62122;41.112;16.694;2022-07-15T20:45:40;26.78;30.88
73792;DHT22;62122;41.112;16.694;2022-07-15T20:48:45;26.66;31.10
73792;DHT22;62122;41.112;16.694;2022-07-15T20:51:49;26.52;31.47
73792;DHT22;62122;41.112;16.694;2022-07-15T20:54:53;26.32;31.84
73792;DHT22;62122;41.112;16.694;2022-07-15T20:57:57;26.05;32.60
73792;DHT22;62122;41.112;16.694;2022-07-15T21:01:01;25.94;33.25
73792;DHT22;62122;41.112;16.694;2022-07-15T21:04:05;25.76;34.07
73792;DHT22;62122;41.112;16.694;2022-07-15T21:07:09;25.67;34.19
73792;DHT22;62122;41.112;16.694;2022-07-15T21:10:14;25.55;34.27
73792;DHT22;62122;41.112;16.694;2022-07-15T21:13:18;25.58;34.27
73792;DHT22;62122;41.112;16.694;2022-07-15T21:16:23;25.61;34.09
73792;DHT22;62122;41.112;16.694;2022-07-15T21:19:26;25.67;33.97
73792;DHT22;62122;41.112;16.694;2022-07-15T21:22:30;25.59;34.24
73792;DHT22;62122;41.112;16.694;2022-07-15T21:25:34;25.52;34.44
73792;DHT22;62122;41.112;16.694;2022-07-15T21:28:57;25.47;34.76
73792;DHT22;62122;41.112;16.694;2022-07-15T21:32:02;25.46;34.78
73792;DHT22;62122;41.112;16.694;2022-07-15T21:35:06;25.45;34.63
73792;DHT22;62122;41.112;16.694;2022-07-15T21:38:10;25.47;34.41
73792;DHT22;62122;41.112;16.694;2022-07-15T21:41:15;25.50;33.90
73792;DHT22;62122;41.112;16.694;2022-07-15T21:44:19;25.52;33.93
73792;DHT22;62122;41.112;16.694;2022-07-15T21:47:26;25.43;34.03
73792;DHT22;62122;41.112;16.694;2022-07-15T21:50:30;25.45;33.79
73792;DHT22;62122;41.112;16.694;2022-07-15T21:53:35;25.43;33.75
73792;DHT22;62122;41.112;16.694;2022-07-15T21:56:38;25.38;33.70
73792;DHT22;62122;41.112;16.694;2022-07-15T21:59:43;25.26;33.83
73792;DHT22;62122;41.112;16.694;2022-07-15T22:02:47;25.25;33.72
73792;DHT22;62122;41.112;16.694;2022-07-15T22:05:51;25.25;33.44
73792;DHT22;62122;41.112;16.694;2022-07-15T22:08:55;25.21;33.31
73792;DHT22;62122;41.112;16.694;2022-07-15T22:12:00;25.25;32.98
73792;DHT22;62122;41.112;16.694;2022-07-15T22:15:05;25.24;32.83
73792;DHT22;62122;41.112;16.694;2022-07-15T22:18:09;25.22;32.74
73792;DHT22;62122;41.112;16.694;2022-07-15T22:21:13;25.15;32.99
73792;DHT22;62122;41.112;16.694;2022-07-15T22:24:17;25.25;32.85
73792;DHT22;62122;41.112;16.694;2022-07-15T22:27:33;25.31;32.60
73792;DHT22;62122;41.112;16.694;2022-07-15T22:30:36;25.19;32.79
73792;DHT22;62122;41.112;16.694;2022-07-15T22:33:42;25.22;33.23
73792;DHT22;62122;41.112;16.694;2022-07-15T22:36:49;25.32;32.76
73792;DHT22;62122;41.112;16.694;2022-07-15T22:39:52;25.29;32.63
73792;DHT22;62122;41.112;16.694;2022-07-15T22:42:56;25.15;33.39
73792;DHT22;62122;41.112;16.694;2022-07-15T22:46:00;24.91;34.08
73792;DHT22;62122;41.112;16.694;2022-07-15T22:49:05;24.80;34.16
73792;DHT22;62122;41.112;16.694;2022-07-15T22:52:09;24.64;34.37
73792;DHT22;62122;41.112;16.694;2022-07-15T22:55:12;24.67;34.15
73792;DHT22;62122;41.112;16.694;2022-07-15T22:58:16;24.61;34.07
73792;DHT22;62122;41.112;16.694;2022-07-15T23:01:23;24.64;34.13
73792;DHT22;62122;41.112;16.694;2022-07-15T23:04:28;24.66;34.14
73792;DHT22;62122;41.112;16.694;2022-07-15T23:07:34;24.63;33.93
73792;DHT22;62122;41.112;16.694;2022-07-15T23:10:38;24.74;33.68
73792;DHT22;62122;41.112;16.694;2022-07-15T23:13:42;24.80;33.65
73792;DHT22;62122;41.112;16.694;2022-07-15T23:16:46;24.84;33.56
73792;DHT22;62122;41.112;16.694;2022-07-15T23:19:50;24.88;33.09
73792;DHT22;62122;41.112;16.694;2022-07-15T23:22:54;24.95;32.93
73792;DHT22;62122;41.112;16.694;2022-07-15T23:25:58;24.99;32.79
73792;DHT22;62122;41.112;16.694;2022-07-15T23:29:02;25.04;32.59
73792;DHT22;62122;41.112;16.694;2022-07-15T23:32:06;25.10;32.67
73792;DHT22;62122;41.112;16.694;2022-07-15T23:35:10;24.99;32.87